createdAt,value
2023-02-04T00:00:38.957Z,6.75
2023-02-04T00:03:07.099Z,6.55
2023-02-04T00:05:36.048Z,6.77
2023-02-04T00:08:07.583Z,6.70
2023-02-04T00:10:36.995Z,7.26
2023-02-04T00:13:05.748Z,6.79
2023-02-04T00:15:34.214Z,7.34
2023-02-04T00:18:02.338Z,6.87
2023-02-04T00:20:30.853Z,6.79
2023-02-04T00:22:58.774Z,6.98
2023-02-04T00:25:28.126Z,6.92
2023-02-04T00:27:55.727Z,6.60
2023-02-04T00:30:23.303Z,6.67
2023-02-04T00:32:54.992Z,6.63
2023-02-04T00:35:23.852Z,6.55
2023-02-04T00:37:53.575Z,6.61
2023-02-04T00:40:21.274Z,6.55
2023-02-04T00:42:49.909Z,6.80
2023-02-04T00:45:18.192Z,6.78
2023-02-04T00:47:47.198Z,6.78
2023-02-04T00:50:15.597Z,6.60
2023-02-04T00:52:44.192Z,6.73
2023-02-04T00:55:17.104Z,7.17
2023-02-04T00:57:47.758Z,7.07
2023-02-04T01:00:16.168Z,6.99
2023-02-04T01:02:44.798Z,6.89
2023-02-04T01:05:12.792Z,6.80
2023-02-04T01:07:40.502Z,7.03
2023-02-04T01:10:09.168Z,6.81
2023-02-04T01:12:37.261Z,6.79
2023-02-04T01:15:06.418Z,7.26
2023-02-04T01:17:34.013Z,6.97
2023-02-04T01:20:02.122Z,7.47
2023-02-04T01:22:31.546Z,7.20
2023-02-04T01:25:02.195Z,7.23
2023-02-04T01:27:41.617Z,6.89
2023-02-04T01:30:10.480Z,7.26
2023-02-04T01:32:39.240Z,7.54
2023-02-04T01:35:08.875Z,7.07
2023-02-04T01:37:36.562Z,7.21
2023-02-04T01:40:04.780Z,7.44
2023-02-04T01:42:34.771Z,7.25
2023-02-04T01:45:06.668Z,7.30
2023-02-04T01:47:35.338Z,7.29
2023-02-04T01:50:06.494Z,7.57
2023-02-04T01:52:37.345Z,7.82
2023-02-04T01:55:13.595Z,7.63
2023-02-04T01:57:41.811Z,7.44
2023-02-04T02:00:19.698Z,7.59
2023-02-04T02:02:51.657Z,7.39
2023-02-04T02:05:23.851Z,7.85
2023-02-04T02:07:54.698Z,7.59
2023-02-04T02:10:22.821Z,7.59
2023-02-04T02:12:52.117Z,7.52
2023-02-04T02:15:20.044Z,7.92
2023-02-04T02:17:48.173Z,7.94
2023-02-04T02:20:21.496Z,7.65
2023-02-04T02:22:56.555Z,7.54
2023-02-04T02:25:24.545Z,7.66
2023-02-04T02:27:52.875Z,7.67
2023-02-04T02:30:20.551Z,7.78
2023-02-04T02:32:48.517Z,7.83
2023-02-04T02:35:16.817Z,8.08
2023-02-04T02:37:44.703Z,8.00
2023-02-04T02:40:13.732Z,8.08
2023-02-04T02:42:43.590Z,7.84
2023-02-04T02:45:24.602Z,7.94
2023-02-04T02:47:53.618Z,7.68
2023-02-04T02:50:24.007Z,7.84
2023-02-04T02:52:54.517Z,7.98
2023-02-04T02:55:25.106Z,7.96
2023-02-04T02:57:54.299Z,7.74
2023-02-04T03:00:24.225Z,7.90
2023-02-04T03:03:13.963Z,7.78
2023-02-04T03:05:44.175Z,7.89
2023-02-04T03:08:12.997Z,7.60
2023-02-04T03:10:42.585Z,7.55
2023-02-04T03:13:12.060Z,7.98
2023-02-04T03:15:40.197Z,7.94
2023-02-04T03:18:08.959Z,7.79
2023-02-04T03:20:37.665Z,7.65
2023-02-04T03:23:05.777Z,7.89
2023-02-04T03:25:34.143Z,7.97
2023-02-04T03:28:06.137Z,7.87
2023-02-04T03:30:34.082Z,8.03
2023-02-04T03:33:05.438Z,7.64
2023-02-04T03:35:33.259Z,7.82
2023-02-04T03:38:01.900Z,7.30
2023-02-04T03:40:30.527Z,7.93
2023-02-04T03:42:58.351Z,7.82
2023-02-04T03:45:27.090Z,7.63
2023-02-04T03:47:56.294Z,7.73
2023-02-04T03:50:24.360Z,7.40
2023-02-04T03:52:53.917Z,7.56
2023-02-04T03:55:21.894Z,8.02
2023-02-04T03:57:49.790Z,8.00
2023-02-04T04:00:17.453Z,7.36
2023-02-04T04:02:46.373Z,7.46
2023-02-04T04:05:14.764Z,7.63
2023-02-04T04:07:42.942Z,7.71
2023-02-04T04:10:10.992Z,7.29
2023-02-04T04:12:38.531Z,7.64
2023-02-04T04:15:07.531Z,7.76
2023-02-04T04:17:35.984Z,7.70
2023-02-04T04:20:05.616Z,7.43
2023-02-04T04:22:34.996Z,7.74
2023-02-04T04:25:03.015Z,7.68
2023-02-04T04:27:31.466Z,7.60
2023-02-04T04:29:59.362Z,7.71
2023-02-04T04:32:27.248Z,7.56
2023-02-04T04:34:56.602Z,7.52
2023-02-04T04:37:24.264Z,7.90
2023-02-04T04:39:52.550Z,7.52
2023-02-04T04:42:20.204Z,7.72
2023-02-04T04:44:47.835Z,7.86
2023-02-04T04:47:17.425Z,7.37
2023-02-04T04:49:45.238Z,7.87
2023-02-04T04:52:13.113Z,7.64
2023-02-04T04:54:40.981Z,7.41
2023-02-04T04:57:09.749Z,7.55
2023-02-04T04:59:37.435Z,7.90
2023-02-04T05:02:05.937Z,7.84
2023-02-04T05:04:33.381Z,7.82
2023-02-04T05:07:01.189Z,7.85
2023-02-04T05:09:29.278Z,7.75
2023-02-04T05:11:57.092Z,7.55
2023-02-04T05:14:24.744Z,7.89
2023-02-04T05:16:57.115Z,7.49
2023-02-04T05:19:29.626Z,7.45
2023-02-04T05:21:58.153Z,7.41
2023-02-04T05:24:28.476Z,7.80
2023-02-04T05:26:57.075Z,7.92
2023-02-04T05:29:28.049Z,7.50
2023-02-04T05:31:58.600Z,7.96
2023-02-04T05:34:27.566Z,8.01
2023-02-04T05:36:55.128Z,7.51
2023-02-04T05:39:24.289Z,7.77
2023-02-04T05:41:52.262Z,7.66
2023-02-04T05:44:20.727Z,7.81
2023-02-04T05:46:48.646Z,7.49
2023-02-04T05:49:18.980Z,7.42
2023-02-04T05:51:49.485Z,7.43
2023-02-04T05:54:21.202Z,7.16
2023-02-04T05:56:56.491Z,6.77
2023-02-04T05:59:28.421Z,6.87
2023-02-04T06:02:00.577Z,6.59
2023-02-04T06:04:39.103Z,6.26
2023-02-04T06:07:14.325Z,6.06
2023-02-04T06:09:45.381Z,6.10
2023-02-04T06:12:19.772Z,6.38
2023-02-04T06:14:48.938Z,6.28
2023-02-04T06:17:25.719Z,6.22
2023-02-04T06:19:56.109Z,6.07
2023-02-04T06:22:31.518Z,6.13
2023-02-04T06:25:08.449Z,6.30
2023-02-04T06:27:38.494Z,6.01
2023-02-04T06:30:11.670Z,6.15
2023-02-04T06:32:45.623Z,6.23
2023-02-04T06:35:18.799Z,6.32
2023-02-04T06:37:47.126Z,6.00
2023-02-04T06:40:16.574Z,6.40
2023-02-04T06:42:44.829Z,5.90
2023-02-04T06:45:14.158Z,5.90
2023-02-04T06:47:52.553Z,5.97
2023-02-04T06:50:20.802Z,6.21
2023-02-04T06:52:51.414Z,6.27
2023-02-04T06:55:24.689Z,6.52
2023-02-04T06:58:03.548Z,6.36
2023-02-04T07:00:32.516Z,5.93
2023-02-04T07:03:02.889Z,6.12
2023-02-04T07:05:37.855Z,5.70
2023-02-04T07:08:07.564Z,6.03
2023-02-04T07:10:36.257Z,5.36
2023-02-04T07:15:46.708Z,5.86
2023-02-04T07:18:19.416Z,5.71
2023-02-04T07:20:55.197Z,5.38
2023-02-04T07:23:26.449Z,5.67
2023-02-04T07:26:06.385Z,5.57
2023-02-04T07:28:36.996Z,5.36
2023-02-04T07:31:09.992Z,5.22
2023-02-04T07:33:40.434Z,5.00
2023-02-04T07:36:15.417Z,5.13
2023-02-04T07:38:44.819Z,4.84
2023-02-04T07:41:22.035Z,5.10
2023-02-04T07:43:55.830Z,5.04
2023-02-04T07:46:24.825Z,4.98
2023-02-04T07:48:54.458Z,5.03
2023-02-04T07:51:27.822Z,5.02
2023-02-04T07:56:53.565Z,5.31
2023-02-04T07:59:26.525Z,4.84
2023-02-04T08:04:41.602Z,5.45
2023-02-04T08:07:12.617Z,5.56
2023-02-04T08:12:36.458Z,5.58
2023-02-04T08:15:10.044Z,5.55
2023-02-04T08:17:51.409Z,5.01
2023-02-04T08:23:13.479Z,5.04
2023-02-04T08:25:46.366Z,4.94
2023-02-04T08:31:22.480Z,5.16
2023-02-04T08:33:57.437Z,5.22
2023-02-04T08:36:33.326Z,4.85
2023-02-04T08:41:56.701Z,4.43
2023-02-04T08:44:32.394Z,4.44
2023-02-04T08:47:02.542Z,4.41
2023-02-04T08:52:19.521Z,4.76
2023-02-04T08:54:49.994Z,4.94
2023-02-04T08:57:36.816Z,4.73
2023-02-04T09:00:15.188Z,5.21
2023-02-04T09:02:53.432Z,5.03
2023-02-04T09:05:23.887Z,4.54
2023-02-04T09:07:58.855Z,4.81
2023-02-04T09:10:32.945Z,4.76
2023-02-04T09:13:15.499Z,4.93
2023-02-04T09:15:54.209Z,5.05
2023-02-04T09:18:30.895Z,5.06
2023-02-04T09:20:59.397Z,5.29
2023-02-04T09:26:09.218Z,5.33
2023-02-04T09:31:19.166Z,5.66
2023-02-04T09:33:55.228Z,5.81
2023-02-04T09:36:41.392Z,5.44
2023-02-04T09:39:14.356Z,6.00
2023-02-04T09:47:20.631Z,5.99
2023-02-04T09:49:56.114Z,6.33
2023-02-04T09:52:28.708Z,6.46
2023-02-04T09:55:03.479Z,6.57
2023-02-04T09:57:36.679Z,6.76
2023-02-04T10:00:18.977Z,6.60
2023-02-04T10:02:53.428Z,6.50
2023-02-04T10:05:38.404Z,6.58
2023-02-04T10:08:23.460Z,6.07
2023-02-04T10:11:12.352Z,6.55
2023-02-04T10:13:54.623Z,6.06
2023-02-04T10:16:42.363Z,6.23
2023-02-04T10:21:57.287Z,5.52
2023-02-04T10:24:29.308Z,5.44
2023-02-04T10:27:14.467Z,5.28
2023-02-04T10:29:57.777Z,5.56
2023-02-04T10:32:30.862Z,5.65
2023-02-04T10:37:45.015Z,5.34
2023-02-04T10:40:39.395Z,5.10
2023-02-04T10:43:24.438Z,5.10
2023-02-04T10:46:08.791Z,5.18
2023-02-04T10:48:43.696Z,5.19
2023-02-04T10:56:55.391Z,5.68
2023-02-04T11:02:32.361Z,5.93
2023-02-04T11:05:04.367Z,6.08
2023-02-04T11:07:39.455Z,5.93
2023-02-04T11:10:15.569Z,5.76
2023-02-04T11:12:53.333Z,5.83
2023-02-04T11:15:50.994Z,5.45
2023-02-04T11:18:21.380Z,5.81
2023-02-04T11:20:56.773Z,5.76
2023-02-04T11:23:39.396Z,5.96
2023-02-04T11:26:19.417Z,5.70
2023-02-04T11:29:07.821Z,5.65
2023-02-04T11:31:48.302Z,5.67
2023-02-04T11:34:25.379Z,5.84
2023-02-04T11:37:12.285Z,5.75
2023-02-04T11:39:48.108Z,6.12
2023-02-04T11:42:27.466Z,6.44
2023-02-04T11:45:16.708Z,6.62
2023-02-04T11:48:00.303Z,6.69
2023-02-04T11:50:36.586Z,6.79
2023-02-04T11:53:06.634Z,6.40
2023-02-04T11:55:47.410Z,6.39
2023-02-04T11:58:26.204Z,6.21
2023-02-04T12:01:07.487Z,5.77
2023-02-04T12:03:54.258Z,6.05
2023-02-04T12:06:33.905Z,6.37
2023-02-04T12:14:45.673Z,6.09
2023-02-04T12:17:18.953Z,5.85
2023-02-04T12:25:17.352Z,5.74
2023-02-04T12:27:59.405Z,5.71
2023-02-04T12:30:33.588Z,5.87
2023-02-04T12:33:04.556Z,5.49
2023-02-04T12:35:46.444Z,5.72
2023-02-04T12:38:28.775Z,5.76
2023-02-04T12:41:03.492Z,5.46
2023-02-04T12:46:18.343Z,5.63
2023-02-04T12:48:56.781Z,5.69
2023-02-04T12:51:31.416Z,5.72
2023-02-04T12:59:26.360Z,5.71
2023-02-04T13:01:57.517Z,5.73
2023-02-04T13:04:31.722Z,5.43
2023-02-04T13:09:49.311Z,5.53
2023-02-04T13:12:20.257Z,5.03
2023-02-04T13:17:27.706Z,5.24
2023-02-04T13:20:06.340Z,5.33
2023-02-04T13:22:43.291Z,5.22
2023-02-04T13:25:18.452Z,5.01
2023-02-04T13:27:47.739Z,4.87
2023-02-04T13:30:25.802Z,4.86
2023-02-04T13:32:55.278Z,4.99
2023-02-04T13:35:33.751Z,4.91
2023-02-04T13:38:07.317Z,5.01
2023-02-04T13:43:23.790Z,5.21
2023-02-04T13:45:53.421Z,5.28
2023-02-04T13:48:26.356Z,5.31
2023-02-04T13:50:57.315Z,5.25
2023-02-04T13:56:08.298Z,5.29
2023-02-04T14:01:24.413Z,5.21
2023-02-04T14:04:00.702Z,4.98
2023-02-04T14:06:37.313Z,4.88
2023-02-04T14:09:11.335Z,4.79
2023-02-04T14:14:27.743Z,4.44
2023-02-04T14:19:51.600Z,4.91
2023-02-04T14:22:31.445Z,4.83
2023-02-04T14:25:05.295Z,4.92
2023-02-04T14:41:16.430Z,3.84
2023-02-04T14:43:48.562Z,4.21
2023-02-04T14:46:37.265Z,4.33
2023-02-04T14:49:18.403Z,4.08
2023-02-04T14:57:01.336Z,4.06
2023-02-04T15:02:16.759Z,3.92
2023-02-04T15:04:48.330Z,4.28
2023-02-04T15:07:22.275Z,4.11
2023-02-04T15:09:51.383Z,4.13
2023-02-04T15:12:22.772Z,4.02
2023-02-04T15:15:06.420Z,3.94
2023-02-04T15:17:45.325Z,3.96
2023-02-04T15:20:16.695Z,3.83
2023-02-04T15:25:34.701Z,3.63
2023-02-04T15:28:04.743Z,3.62
2023-02-04T15:30:41.463Z,3.51
2023-02-04T15:33:17.059Z,3.43
2023-02-04T15:38:29.505Z,3.67
2023-02-04T15:41:23.357Z,3.23
2023-02-04T15:44:12.909Z,3.42
2023-02-04T15:49:21.057Z,3.26
2023-02-04T15:51:50.798Z,3.06
2023-02-04T15:54:34.429Z,3.00
2023-02-04T15:57:12.326Z,3.28
2023-02-04T15:59:49.275Z,3.10
2023-02-04T16:02:23.318Z,3.02
2023-02-04T16:04:54.158Z,3.01
2023-02-04T16:07:25.782Z,3.19
2023-02-04T16:09:59.291Z,3.29
2023-02-04T16:12:35.314Z,3.04
2023-02-04T16:15:14.377Z,2.97
2023-02-04T16:17:52.447Z,3.17
2023-02-04T16:20:28.379Z,2.98
2023-02-04T16:23:04.565Z,2.97
2023-02-04T16:25:47.246Z,2.97
2023-02-04T16:28:21.299Z,2.77
2023-02-04T16:30:53.413Z,2.80
2023-02-04T16:38:54.261Z,2.64
2023-02-04T16:41:30.281Z,2.64
2023-02-04T16:44:02.250Z,2.59
2023-02-04T16:46:35.321Z,2.49
2023-02-04T16:49:27.300Z,2.38
2023-02-04T16:51:58.235Z,2.44
2023-02-04T16:54:34.320Z,2.51
2023-02-04T16:57:07.294Z,2.70
2023-02-04T16:59:39.146Z,2.78
2023-02-04T17:02:16.702Z,2.74
2023-02-04T17:04:54.298Z,2.26
2023-02-04T17:07:25.856Z,2.49
2023-02-04T17:10:04.308Z,2.52
2023-02-04T17:12:39.858Z,2.63
2023-02-04T17:15:09.247Z,2.72
2023-02-04T17:20:31.567Z,2.82
2023-02-04T17:23:05.234Z,1.85
2023-02-04T17:25:35.639Z,2.46
2023-02-04T17:28:09.275Z,2.15
2023-02-04T17:30:39.514Z,2.61
2023-02-04T17:35:55.449Z,2.96
2023-02-04T17:38:27.287Z,3.28
2023-02-04T17:41:04.135Z,2.95
2023-02-04T17:43:40.195Z,2.88
2023-02-04T17:46:16.454Z,2.87
2023-02-04T17:48:53.081Z,2.96
2023-02-04T17:51:32.162Z,2.97
2023-02-04T17:54:01.415Z,2.91
2023-02-04T17:56:32.727Z,2.81
2023-02-04T17:59:15.374Z,2.65
2023-02-04T18:01:48.920Z,2.66
2023-02-04T18:04:31.608Z,2.84
2023-02-04T18:07:20.274Z,2.96
2023-02-04T18:09:54.231Z,2.57
2023-02-04T18:12:26.627Z,2.68
2023-02-04T18:14:56.490Z,2.74
2023-02-04T18:17:35.669Z,2.61
2023-02-04T18:20:20.399Z,2.71
2023-02-04T18:25:45.247Z,2.64
2023-02-04T18:28:25.150Z,2.47
2023-02-04T18:30:58.286Z,2.54
2023-02-04T18:33:35.176Z,2.65
2023-02-04T18:36:05.367Z,2.69
2023-02-04T18:38:43.231Z,2.67
2023-02-04T18:41:33.871Z,2.92
2023-02-04T18:44:23.148Z,2.80
2023-02-04T18:47:03.177Z,2.91
2023-02-04T18:49:39.724Z,2.75
2023-02-04T18:52:22.335Z,2.96
2023-02-04T18:54:53.318Z,2.97
2023-02-04T18:57:36.132Z,2.37
2023-02-04T19:00:10.520Z,2.79
2023-02-04T19:02:50.586Z,3.28
2023-02-04T19:05:36.434Z,3.16
2023-02-04T19:11:36.428Z,2.95
2023-02-04T19:14:25.195Z,2.80
2023-02-04T19:17:06.148Z,2.73
2023-02-04T19:19:42.709Z,2.61
2023-02-04T19:22:29.215Z,2.31
2023-02-04T19:28:15.304Z,2.19
2023-02-04T19:30:53.184Z,2.44
2023-02-04T19:33:49.592Z,2.42
2023-02-04T19:39:42.361Z,2.50
2023-02-04T19:42:34.995Z,2.69
2023-02-04T19:45:30.678Z,2.46
2023-02-04T19:50:39.213Z,2.34
2023-02-04T19:53:15.334Z,2.49
2023-02-04T19:55:57.088Z,2.31
2023-02-04T19:58:46.236Z,2.27
2023-02-04T20:04:20.164Z,2.43
2023-02-04T20:06:52.123Z,2.44
2023-02-04T20:12:07.328Z,2.05
2023-02-04T20:15:01.143Z,2.13
2023-02-04T20:17:36.611Z,2.23
2023-02-04T20:20:24.160Z,2.34
2023-02-04T20:22:56.128Z,2.31
2023-02-04T20:25:50.098Z,1.86
2023-02-04T20:28:27.150Z,2.06
2023-02-04T20:31:04.737Z,1.89
2023-02-04T20:33:54.035Z,2.31
2023-02-04T20:36:44.281Z,2.39
2023-02-04T20:39:29.094Z,2.46
2023-02-04T20:42:46.003Z,2.12
2023-02-04T20:45:34.673Z,1.98
2023-02-04T20:48:18.601Z,2.00
2023-02-04T20:50:55.398Z,2.13
2023-02-04T20:56:43.138Z,2.08
2023-02-04T20:59:38.138Z,2.01
2023-02-04T21:02:23.026Z,2.10
2023-02-04T21:07:33.621Z,2.20
2023-02-04T21:10:04.411Z,1.86
2023-02-04T21:12:35.352Z,1.85
2023-02-04T21:15:14.101Z,1.68
2023-02-04T21:17:43.417Z,1.68
2023-02-04T21:20:16.132Z,1.72
2023-02-04T21:22:47.303Z,1.79
2023-02-04T21:25:18.119Z,1.74
2023-02-04T21:27:50.396Z,1.81
2023-02-04T21:30:25.455Z,1.23
2023-02-04T21:33:01.182Z,1.62
2023-02-04T21:35:32.605Z,1.89
2023-02-04T21:38:06.259Z,1.81
2023-02-04T21:40:39.124Z,1.84
2023-02-04T21:43:09.312Z,1.77
2023-02-04T21:45:40.527Z,1.76
2023-02-04T21:48:11.142Z,1.86
2023-02-04T21:50:40.974Z,1.88
2023-02-04T21:53:10.291Z,2.02
2023-02-04T21:55:40.214Z,1.93
2023-02-04T21:58:13.577Z,1.63
2023-02-04T22:00:45.820Z,1.55
2023-02-04T22:03:17.535Z,1.75
2023-02-04T22:05:47.093Z,1.92
2023-02-04T22:08:17.086Z,1.44
2023-02-04T22:10:46.166Z,1.88
2023-02-04T22:13:15.378Z,1.92
2023-02-04T22:15:44.648Z,1.92
2023-02-04T22:18:23.356Z,1.94
2023-02-04T22:20:53.227Z,1.92
2023-02-04T22:23:21.466Z,1.47
2023-02-04T22:25:49.637Z,1.48
2023-02-04T22:28:18.155Z,1.19
2023-02-04T22:30:49.205Z,1.34
2023-02-04T22:33:17.496Z,1.53
2023-02-04T22:35:49.061Z,1.37
2023-02-04T22:38:20.241Z,1.15
2023-02-04T22:40:50.220Z,1.67
2023-02-04T22:43:18.103Z,1.59
2023-02-04T22:45:46.272Z,1.58
2023-02-04T22:48:14.096Z,1.66
2023-02-04T22:50:43.486Z,1.60
2023-02-04T22:53:19.082Z,1.63
2023-02-04T22:55:47.646Z,1.46
2023-02-04T22:58:19.430Z,1.63
2023-02-04T23:00:48.017Z,1.66
2023-02-04T23:03:17.213Z,1.83
2023-02-04T23:05:46.732Z,1.34
2023-02-04T23:08:15.105Z,1.28
2023-02-04T23:10:43.090Z,1.49
2023-02-04T23:13:12.403Z,1.62
2023-02-04T23:15:44.701Z,1.77
2023-02-04T23:18:14.942Z,1.77
2023-02-04T23:20:43.316Z,1.45
2023-02-04T23:23:17.471Z,1.49
2023-02-04T23:25:47.491Z,1.64
2023-02-04T23:28:16.436Z,1.65
2023-02-04T23:30:45.014Z,1.63
2023-02-04T23:33:14.181Z,1.60
2023-02-04T23:35:41.966Z,1.61
2023-02-04T23:38:11.269Z,1.72
2023-02-04T23:40:40.333Z,1.46
2023-02-04T23:43:10.827Z,1.50
2023-02-04T23:45:39.591Z,1.87
2023-02-04T23:48:10.120Z,1.58
2023-02-04T23:50:38.223Z,1.47
2023-02-04T23:53:07.070Z,1.57
2023-02-04T23:55:35.045Z,1.63
2023-02-04T23:58:02.771Z,1.62
